sensor_id;sensor_type;location;lat;lon;timestamp;P1;durP1;ratioP1;P2;durP2;ratioP2
16837;SDS011;19510;54.486;9.046;2022-08-21T02:03:21;7.82;;;3.25;;
16837;SDS011;19510;54.486;9.046;2022-08-21T02:05:47;6.68;;;3.03;;
16837;SDS011;19510;54.486;9.046;2022-08-21T02:08:13;12.32;;;3.35;;
16837;SDS011;19510;54.486;9.046;2022-08-21T02:10:38;9.15;;;3.67;;
16837;SDS011;19510;54.486;9.046;2022-08-21T02:13:05;6.18;;;3.53;;
16837;SDS011;19510;54.486;9.046;2022-08-21T02:15:32;5.90;;;3.47;;
16837;SDS011;19510;54.486;9.046;2022-08-21T02:17:59;7.07;;;3.40;;
16837;SDS011;19510;54.486;9.046;2022-08-21T02:20:29;10.57;;;3.63;;
16837;SDS011;19510;54.486;9.046;2022-08-21T02:22:57;10.43;;;3.67;;
16837;SDS011;19510;54.486;9.046;2022-08-21T02:25:24;8.38;;;3.58;;
16837;SDS011;19510;54.486;9.046;2022-08-21T02:27:50;5.72;;;3.33;;
16837;SDS011;19510;54.486;9.046;2022-08-21T02:30:22;7.32;;;3.20;;
16837;SDS011;19510;54.486;9.046;2022-08-21T02:32:50;9.68;;;3.63;;
16837;SDS011;19510;54.486;9.046;2022-08-21T02:35:16;8.20;;;3.35;;
16837;SDS011;19510;54.486;9.046;2022-08-21T02:37:44;11.13;;;4.60;;
16837;SDS011;19510;54.486;9.046;2022-08-21T02:40:13;8.57;;;3.42;;
16837;SDS011;19510;54.486;9.046;2022-08-21T02:42:39;7.15;;;3.35;;
16837;SDS011;19510;54.486;9.046;2022-08-21T02:45:06;9.10;;;3.72;;
16837;SDS011;19510;54.486;9.046;2022-08-21T02:47:32;10.73;;;3.63;;
16837;SDS011;19510;54.486;9.046;2022-08-21T02:49:58;8.75;;;3.88;;
16837;SDS011;19510;54.486;9.046;2022-08-21T02:52:23;9.57;;;4.13;;
16837;SDS011;19510;54.486;9.046;2022-08-21T02:54:49;7.40;;;3.30;;
16837;SDS011;19510;54.486;9.046;2022-08-21T02:57:15;10.77;;;3.10;;
16837;SDS011;19510;54.486;9.046;2022-08-21T02:59:41;8.13;;;3.10;;
16837;SDS011;19510;54.486;9.046;2022-08-21T03:02:07;7.28;;;3.35;;
16837;SDS011;19510;54.486;9.046;2022-08-21T03:04:32;7.45;;;3.55;;
16837;SDS011;19510;54.486;9.046;2022-08-21T03:06:58;7.55;;;3.28;;
16837;SDS011;19510;54.486;9.046;2022-08-21T03:09:25;9.63;;;3.28;;
16837;SDS011;19510;54.486;9.046;2022-08-21T03:11:51;6.45;;;3.20;;
16837;SDS011;19510;54.486;9.046;2022-08-21T03:14:17;10.00;;;3.78;;
16837;SDS011;19510;54.486;9.046;2022-08-21T03:16:43;8.70;;;3.67;;
16837;SDS011;19510;54.486;9.046;2022-08-21T03:19:09;11.63;;;3.85;;
16837;SDS011;19510;54.486;9.046;2022-08-21T03:21:35;6.88;;;3.55;;
16837;SDS011;19510;54.486;9.046;2022-08-21T03:24:01;8.15;;;3.55;;
16837;SDS011;19510;54.486;9.046;2022-08-21T03:26:26;8.52;;;3.58;;
16837;SDS011;19510;54.486;9.046;2022-08-21T03:28:52;6.78;;;3.95;;
16837;SDS011;19510;54.486;9.046;2022-08-21T03:31:18;6.68;;;3.60;;
16837;SDS011;19510;54.486;9.046;2022-08-21T03:33:44;9.75;;;3.88;;
16837;SDS011;19510;54.486;9.046;2022-08-21T03:36:09;5.35;;;3.47;;
16837;SDS011;19510;54.486;9.046;2022-08-21T03:38:36;8.93;;;3.92;;
16837;SDS011;19510;54.486;9.046;2022-08-21T03:41:06;7.90;;;4.25;;
16837;SDS011;19510;54.486;9.046;2022-08-21T03:43:32;9.63;;;4.60;;
16837;SDS011;19510;54.486;9.046;2022-08-21T03:45:58;8.55;;;4.32;;
16837;SDS011;19510;54.486;9.046;2022-08-21T03:48:26;9.50;;;3.80;;
16837;SDS011;19510;54.486;9.046;2022-08-21T03:50:52;8.68;;;3.70;;
16837;SDS011;19510;54.486;9.046;2022-08-21T03:53:18;10.65;;;4.15;;
16837;SDS011;19510;54.486;9.046;2022-08-21T03:55:46;9.20;;;3.60;;
16837;SDS011;19510;54.486;9.046;2022-08-21T03:58:14;8.60;;;3.88;;
16837;SDS011;19510;54.486;9.046;2022-08-21T04:00:41;6.57;;;3.08;;
16837;SDS011;19510;54.486;9.046;2022-08-21T04:03:07;7.13;;;3.67;;
16837;SDS011;19510;54.486;9.046;2022-08-21T04:05:32;8.30;;;3.42;;
16837;SDS011;19510;54.486;9.046;2022-08-21T04:07:59;11.35;;;3.70;;
16837;SDS011;19510;54.486;9.046;2022-08-21T04:10:28;7.63;;;3.40;;
16837;SDS011;19510;54.486;9.046;2022-08-21T04:12:55;8.60;;;3.60;;
16837;SDS011;19510;54.486;9.046;2022-08-21T04:15:22;6.75;;;3.33;;
16837;SDS011;19510;54.486;9.046;2022-08-21T04:17:49;7.43;;;3.78;;
16837;SDS011;19510;54.486;9.046;2022-08-21T04:20:15;7.72;;;3.30;;
16837;SDS011;19510;54.486;9.046;2022-08-21T04:22:42;6.47;;;4.07;;
16837;SDS011;19510;54.486;9.046;2022-08-21T04:25:09;7.35;;;3.58;;
16837;SDS011;19510;54.486;9.046;2022-08-21T04:27:35;6.57;;;3.85;;
16837;SDS011;19510;54.486;9.046;2022-08-21T04:30:00;10.00;;;3.80;;
16837;SDS011;19510;54.486;9.046;2022-08-21T04:32:26;6.18;;;3.53;;
16837;SDS011;19510;54.486;9.046;2022-08-21T04:35:03;10.07;;;3.97;;
16837;SDS011;19510;54.486;9.046;2022-08-21T04:37:31;9.93;;;4.35;;
16837;SDS011;19510;54.486;9.046;2022-08-21T04:39:57;7.93;;;3.45;;
16837;SDS011;19510;54.486;9.046;2022-08-21T04:42:27;8.55;;;3.38;;
16837;SDS011;19510;54.486;9.046;2022-08-21T04:44:53;5.75;;;3.00;;
16837;SDS011;19510;54.486;9.046;2022-08-21T04:47:20;5.95;;;3.55;;
16837;SDS011;19510;54.486;9.046;2022-08-21T04:49:46;6.07;;;3.30;;
16837;SDS011;19510;54.486;9.046;2022-08-21T04:52:13;6.30;;;2.63;;
16837;SDS011;19510;54.486;9.046;2022-08-21T04:54:41;8.23;;;2.65;;
16837;SDS011;19510;54.486;9.046;2022-08-21T04:57:10;5.85;;;2.70;;
16837;SDS011;19510;54.486;9.046;2022-08-21T04:59:37;10.15;;;3.28;;
16837;SDS011;19510;54.486;9.046;2022-08-21T05:02:06;5.22;;;3.17;;
16837;SDS011;19510;54.486;9.046;2022-08-21T05:04:34;4.45;;;2.67;;
16837;SDS011;19510;54.486;9.046;2022-08-21T05:07:05;6.25;;;2.75;;
16837;SDS011;19510;54.486;9.046;2022-08-21T05:09:35;10.50;;;2.60;;
16837;SDS011;19510;54.486;9.046;2022-08-21T05:12:03;4.53;;;2.47;;
16837;SDS011;19510;54.486;9.046;2022-08-21T05:14:29;9.57;;;2.90;;
16837;SDS011;19510;54.486;9.046;2022-08-21T05:16:55;7.55;;;2.40;;
16837;SDS011;19510;54.486;9.046;2022-08-21T05:19:21;6.72;;;2.65;;
16837;SDS011;19510;54.486;9.046;2022-08-21T05:21:46;6.63;;;2.90;;
16837;SDS011;19510;54.486;9.046;2022-08-21T05:24:13;7.15;;;2.88;;
16837;SDS011;19510;54.486;9.046;2022-08-21T05:26:39;6.53;;;2.47;;
16837;SDS011;19510;54.486;9.046;2022-08-21T05:29:05;5.68;;;2.30;;
16837;SDS011;19510;54.486;9.046;2022-08-21T05:31:31;9.48;;;2.80;;
16837;SDS011;19510;54.486;9.046;2022-08-21T05:33:57;5.30;;;2.30;;
16837;SDS011;19510;54.486;9.046;2022-08-21T05:36:22;7.10;;;2.80;;
16837;SDS011;19510;54.486;9.046;2022-08-21T05:38:49;6.30;;;2.70;;
16837;SDS011;19510;54.486;9.046;2022-08-21T05:41:15;5.93;;;2.40;;
16837;SDS011;19510;54.486;9.046;2022-08-21T05:43:40;5.75;;;2.72;;
16837;SDS011;19510;54.486;9.046;2022-08-21T05:46:06;5.28;;;2.58;;
16837;SDS011;19510;54.486;9.046;2022-08-21T05:48:33;5.55;;;2.90;;
16837;SDS011;19510;54.486;9.046;2022-08-21T05:51:05;9.35;;;2.40;;
16837;SDS011;19510;54.486;9.046;2022-08-21T05:53:33;7.78;;;2.90;;
16837;SDS011;19510;54.486;9.046;2022-08-21T05:55:58;8.65;;;3.13;;
16837;SDS011;19510;54.486;9.046;2022-08-21T05:58:27;6.22;;;2.40;;
16837;SDS011;19510;54.486;9.046;2022-08-21T06:00:52;7.47;;;2.65;;
16837;SDS011;19510;54.486;9.046;2022-08-21T06:03:23;4.15;;;2.33;;
16837;SDS011;19510;54.486;9.046;2022-08-21T06:05:51;9.18;;;2.90;;
16837;SDS011;19510;54.486;9.046;2022-08-21T06:08:18;8.02;;;5.20;;
16837;SDS011;19510;54.486;9.046;2022-08-21T06:10:45;8.52;;;6.15;;
16837;SDS011;19510;54.486;9.046;2022-08-21T06:13:13;4.88;;;2.70;;
16837;SDS011;19510;54.486;9.046;2022-08-21T06:15:40;4.57;;;2.80;;
16837;SDS011;19510;54.486;9.046;2022-08-21T06:18:06;6.07;;;2.72;;
16837;SDS011;19510;54.486;9.046;2022-08-21T06:20:32;7.22;;;2.95;;
16837;SDS011;19510;54.486;9.046;2022-08-21T06:22:59;6.47;;;2.83;;
16837;SDS011;19510;54.486;9.046;2022-08-21T06:25:25;6.45;;;2.55;;
16837;SDS011;19510;54.486;9.046;2022-08-21T06:27:52;6.60;;;2.50;;
16837;SDS011;19510;54.486;9.046;2022-08-21T06:30:58;5.57;;;2.35;;
16837;SDS011;19510;54.486;9.046;2022-08-21T06:33:24;8.75;;;3.00;;
16837;SDS011;19510;54.486;9.046;2022-08-21T06:35:50;8.15;;;2.45;;
16837;SDS011;19510;54.486;9.046;2022-08-21T06:38:17;5.13;;;2.60;;
16837;SDS011;19510;54.486;9.046;2022-08-21T06:40:48;5.97;;;2.47;;
16837;SDS011;19510;54.486;9.046;2022-08-21T06:43:18;7.43;;;2.47;;
16837;SDS011;19510;54.486;9.046;2022-08-21T06:45:44;5.15;;;2.15;;
16837;SDS011;19510;54.486;9.046;2022-08-21T06:48:10;5.18;;;2.22;;
16837;SDS011;19510;54.486;9.046;2022-08-21T06:50:36;5.47;;;2.28;;
16837;SDS011;19510;54.486;9.046;2022-08-21T06:53:05;10.68;;;5.95;;
16837;SDS011;19510;54.486;9.046;2022-08-21T06:55:33;5.22;;;2.20;;
16837;SDS011;19510;54.486;9.046;2022-08-21T06:57:59;6.53;;;2.17;;
16837;SDS011;19510;54.486;9.046;2022-08-21T07:00:25;6.20;;;2.38;;
16837;SDS011;19510;54.486;9.046;2022-08-21T07:02:51;9.02;;;3.65;;
16837;SDS011;19510;54.486;9.046;2022-08-21T07:05:16;13.20;;;2.28;;
16837;SDS011;19510;54.486;9.046;2022-08-21T07:07:42;5.63;;;2.45;;
16837;SDS011;19510;54.486;9.046;2022-08-21T07:10:10;7.80;;;2.30;;
16837;SDS011;19510;54.486;9.046;2022-08-21T07:12:39;2.95;;;2.00;;
16837;SDS011;19510;54.486;9.046;2022-08-21T07:15:07;5.43;;;2.20;;
16837;SDS011;19510;54.486;9.046;2022-08-21T07:17:33;5.10;;;1.92;;
16837;SDS011;19510;54.486;9.046;2022-08-21T07:20:01;5.45;;;2.55;;
16837;SDS011;19510;54.486;9.046;2022-08-21T07:22:27;6.40;;;2.50;;
16837;SDS011;19510;54.486;9.046;2022-08-21T07:24:54;7.68;;;2.47;;
16837;SDS011;19510;54.486;9.046;2022-08-21T07:27:20;6.10;;;2.35;;
16837;SDS011;19510;54.486;9.046;2022-08-21T07:29:45;6.10;;;2.60;;
16837;SDS011;19510;54.486;9.046;2022-08-21T07:32:13;17.38;;;8.45;;
16837;SDS011;19510;54.486;9.046;2022-08-21T07:34:40;9.32;;;4.93;;
16837;SDS011;19510;54.486;9.046;2022-08-21T07:37:06;4.53;;;2.72;;
16837;SDS011;19510;54.486;9.046;2022-08-21T07:39:31;6.30;;;2.25;;
16837;SDS011;19510;54.486;9.046;2022-08-21T07:41:57;5.70;;;2.15;;
16837;SDS011;19510;54.486;9.046;2022-08-21T07:44:23;5.53;;;2.55;;
16837;SDS011;19510;54.486;9.046;2022-08-21T07:46:48;6.25;;;2.50;;
16837;SDS011;19510;54.486;9.046;2022-08-21T07:49:14;2.75;;;1.98;;
16837;SDS011;19510;54.486;9.046;2022-08-21T07:51:40;6.45;;;2.08;;
16837;SDS011;19510;54.486;9.046;2022-08-21T07:54:06;9.00;;;1.98;;
16837;SDS011;19510;54.486;9.046;2022-08-21T07:56:33;5.80;;;2.00;;
16837;SDS011;19510;54.486;9.046;2022-08-21T07:58:59;7.05;;;2.30;;
16837;SDS011;19510;54.486;9.046;2022-08-21T08:01:25;3.67;;;1.92;;
16837;SDS011;19510;54.486;9.046;2022-08-21T08:03:51;5.40;;;1.58;;
16837;SDS011;19510;54.486;9.046;2022-08-21T08:06:17;4.80;;;1.60;;
16837;SDS011;19510;54.486;9.046;2022-08-21T08:08:44;7.35;;;2.05;;
16837;SDS011;19510;54.486;9.046;2022-08-21T08:11:10;6.15;;;1.55;;
16837;SDS011;19510;54.486;9.046;2022-08-21T08:13:45;5.57;;;1.42;;
16837;SDS011;19510;54.486;9.046;2022-08-21T08:16:13;12.52;;;1.73;;
16837;SDS011;19510;54.486;9.046;2022-08-21T08:18:39;4.45;;;1.50;;
16837;SDS011;19510;54.486;9.046;2022-08-21T08:21:07;8.50;;;1.45;;
16837;SDS011;19510;54.486;9.046;2022-08-21T08:23:33;4.35;;;1.48;;
16837;SDS011;19510;54.486;9.046;2022-08-21T08:25:59;5.45;;;1.40;;
16837;SDS011;19510;54.486;9.046;2022-08-21T08:28:27;3.78;;;1.88;;
16837;SDS011;19510;54.486;9.046;2022-08-21T08:30:54;3.28;;;1.30;;
16837;SDS011;19510;54.486;9.046;2022-08-21T08:33:22;3.80;;;1.30;;
16837;SDS011;19510;54.486;9.046;2022-08-21T08:35:49;3.58;;;1.13;;
16837;SDS011;19510;54.486;9.046;2022-08-21T08:38:17;2.00;;;1.10;;
16837;SDS011;19510;54.486;9.046;2022-08-21T08:41:26;2.25;;;1.00;;
16837;SDS011;19510;54.486;9.046;2022-08-21T08:43:36;2.90;;;1.38;;
16837;SDS011;19510;54.486;9.046;2022-08-21T08:46:06;2.83;;;1.25;;
16837;SDS011;19510;54.486;9.046;2022-08-21T08:48:41;2.63;;;1.20;;
